Beardstown, Illinois
Current Conditions -  °F | °C
As of 1:55 AM on Monday 24 Nov 2014 (Local Time) from KIJX Reporting Station
Haze Haze  
Wind Chill: 38°   Ceiling: 600
Heat Index: 46°   Visibility: 4mi
Dew Point: 43°   Wind: 17mph
Humidity: 92%   Direction: 310°NW
Pressure: 29.21"   Gusts: 24mph
Location:  40.02°N, 90.43°W
Report Text: KIJX 240755Z AUTO 31015G21KT 4SM BR OVC006 08/06 A2921 RMK AO2 T00750063
Loading
Personal Weather Stations






























Interactive Weather Map New forecast layout! Learn more

10-Day Weather Forecast

Advertisements
Track Severe Weather on mobile